createdAt,value
2022-09-23T00:04:30.363Z,3.60
2022-09-23T00:09:33.428Z,2.75
2022-09-23T00:14:37.344Z,3.83
2022-09-23T00:19:41.610Z,3.05
2022-09-23T00:24:44.356Z,2.47
2022-09-23T00:29:46.797Z,3.65
2022-09-23T00:34:51.972Z,3.08
2022-09-23T00:39:55.451Z,3.63
2022-09-23T00:44:59.744Z,3.38
2022-09-23T00:50:10.921Z,3.08
2022-09-23T00:55:17.294Z,3.35
2022-09-23T01:00:19.836Z,3.78
2022-09-23T01:05:24.089Z,3.35
2022-09-23T01:10:31.849Z,2.83
2022-09-23T01:15:44.566Z,3.75
2022-09-23T01:20:59.418Z,3.85
2022-09-23T01:26:16.142Z,3.92
2022-09-23T01:31:28.382Z,3.67
2022-09-23T01:36:39.345Z,3.40
2022-09-23T01:41:51.906Z,5.45
2022-09-23T01:47:01.194Z,3.58
2022-09-23T01:52:10.086Z,3.67
2022-09-23T01:57:18.854Z,4.03
2022-09-23T02:02:29.521Z,3.70
2022-09-23T02:07:38.790Z,4.25
2022-09-23T02:12:45.597Z,3.72
2022-09-23T02:17:53.251Z,4.50
2022-09-23T02:23:01.537Z,4.50
2022-09-23T02:28:10.545Z,4.57
2022-09-23T02:33:21.280Z,4.53
2022-09-23T02:38:34.669Z,5.95
2022-09-23T02:43:43.716Z,4.78
2022-09-23T02:48:53.158Z,4.70
2022-09-23T02:53:56.837Z,4.68
2022-09-23T02:58:59.441Z,4.23
2022-09-23T03:04:17.180Z,4.80
2022-09-23T03:09:23.681Z,4.97
2022-09-23T03:14:33.627Z,7.13
2022-09-23T03:19:43.670Z,6.07
2022-09-23T03:24:51.867Z,5.07
2022-09-23T03:29:57.518Z,4.88
2022-09-23T03:35:03.060Z,3.87
2022-09-23T03:40:11.591Z,5.00
2022-09-23T03:45:19.096Z,5.53
2022-09-23T03:50:23.083Z,5.47
2022-09-23T03:55:25.824Z,4.30
2022-09-23T04:00:28.343Z,5.03
2022-09-23T04:05:32.335Z,5.15
2022-09-23T04:10:34.845Z,5.97
2022-09-23T04:15:37.603Z,5.25
2022-09-23T04:20:42.031Z,5.18
2022-09-23T04:25:47.623Z,3.70
2022-09-23T04:30:50.204Z,4.97
2022-09-23T04:35:54.465Z,4.95
2022-09-23T04:40:56.969Z,3.95
2022-09-23T04:46:00.927Z,5.50
2022-09-23T04:51:05.795Z,3.83
2022-09-23T04:56:11.255Z,5.10
2022-09-23T05:01:16.324Z,4.90
2022-09-23T05:06:21.387Z,5.80
2022-09-23T05:11:24.540Z,5.28
2022-09-23T05:16:27.647Z,5.78
2022-09-23T05:21:32.229Z,5.55
2022-09-23T05:31:37.624Z,9.95
2022-09-23T05:36:41.746Z,12.48
2022-09-23T05:41:44.495Z,6.78
2022-09-23T05:46:47.073Z,7.57
2022-09-23T05:51:50.897Z,9.90
2022-09-23T05:56:53.399Z,15.27
2022-09-23T06:01:56.745Z,16.95
2022-09-23T06:07:03.488Z,13.38
2022-09-23T06:12:07.080Z,11.57
2022-09-23T06:17:09.522Z,10.63
2022-09-23T06:22:16.847Z,9.10
2022-09-23T06:27:19.297Z,7.18
2022-09-23T06:32:23.071Z,6.88
2022-09-23T06:37:26.965Z,6.30
2022-09-23T06:42:29.688Z,6.05
2022-09-23T06:47:32.250Z,6.90
2022-09-23T06:52:36.103Z,6.18
2022-09-23T06:57:38.560Z,5.77
2022-09-23T07:02:42.793Z,5.60
2022-09-23T07:07:46.743Z,5.95
2022-09-23T07:12:49.285Z,5.80
2022-09-23T07:17:51.736Z,5.60
2022-09-23T07:22:56.334Z,6.10
2022-09-23T07:33:01.341Z,3.70
2022-09-23T07:38:06.882Z,3.95
2022-09-23T07:43:09.671Z,3.40
2022-09-23T07:48:12.546Z,3.03
2022-09-23T07:53:16.498Z,2.65
2022-09-23T07:58:19.020Z,14.80
2022-09-23T08:03:21.963Z,15.32
2022-09-23T08:08:26.129Z,3.83
2022-09-23T08:13:28.594Z,2.60
2022-09-23T08:18:31.188Z,2.45
2022-09-23T08:23:35.344Z,2.42
2022-09-23T08:28:37.868Z,3.50
2022-09-23T08:33:41.049Z,3.40
2022-09-23T08:38:45.062Z,2.90
2022-09-23T08:43:53.179Z,2.35
2022-09-23T08:48:56.740Z,3.88
2022-09-23T08:54:01.117Z,2.60
2022-09-23T08:59:08.626Z,2.42
2022-09-23T09:04:20.111Z,1.92
2022-09-23T09:09:28.148Z,2.05
2022-09-23T09:14:37.732Z,2.28
2022-09-23T09:19:55.316Z,2.30
2022-09-23T09:25:06.165Z,2.55
2022-09-23T09:30:13.479Z,2.30
2022-09-23T09:35:27.010Z,2.25
2022-09-23T09:40:31.002Z,2.05
2022-09-23T09:45:57.473Z,2.17
2022-09-23T09:51:19.374Z,2.03
2022-09-23T09:56:31.292Z,2.00
2022-09-23T10:01:36.215Z,1.60
2022-09-23T10:06:38.921Z,1.85
2022-09-23T10:11:43.027Z,1.80
2022-09-23T10:16:47.754Z,1.65
2022-09-23T10:21:54.665Z,1.85
2022-09-23T10:27:02.969Z,1.48
2022-09-23T10:32:26.652Z,1.90
2022-09-23T10:37:36.258Z,2.00
2022-09-23T10:43:11.176Z,1.60
2022-09-23T10:48:24.716Z,1.70
2022-09-23T10:53:40.009Z,2.42
2022-09-23T10:59:03.786Z,1.60
2022-09-23T11:04:23.280Z,1.48
2022-09-23T11:09:34.422Z,1.50
2022-09-23T11:15:00.422Z,1.48
2022-09-23T11:20:18.251Z,2.17
2022-09-23T11:25:32.997Z,2.20
2022-09-23T11:30:51.202Z,1.88
2022-09-23T11:35:58.651Z,1.98
2022-09-23T11:41:06.082Z,2.97
2022-09-23T11:46:16.883Z,3.75
2022-09-23T11:51:25.599Z,1.98
2022-09-23T11:56:35.947Z,1.83
2022-09-23T12:01:46.661Z,1.20
2022-09-23T12:06:53.474Z,1.30
2022-09-23T12:12:03.599Z,1.25
2022-09-23T12:17:26.974Z,1.67
2022-09-23T12:22:42.980Z,1.90
2022-09-23T12:27:49.831Z,1.30
2022-09-23T12:32:54.293Z,1.13
2022-09-23T12:37:56.883Z,1.60
2022-09-23T12:43:01.333Z,1.50
2022-09-23T12:48:26.176Z,1.33
2022-09-23T12:53:54.500Z,1.20
2022-09-23T12:59:21.346Z,1.50
2022-09-23T13:05:08.932Z,1.95
2022-09-23T13:10:18.330Z,1.10
2022-09-23T13:15:29.754Z,1.10
2022-09-23T13:20:51.784Z,1.45
2022-09-23T13:25:57.325Z,2.30
2022-09-23T13:31:04.718Z,2.00
2022-09-23T13:36:14.728Z,1.40
2022-09-23T13:41:21.332Z,1.50
2022-09-23T13:46:27.196Z,1.50
2022-09-23T13:51:34.188Z,1.40
2022-09-23T13:56:38.329Z,1.67
2022-09-23T14:01:40.950Z,1.85
2022-09-23T14:06:45.124Z,1.23
2022-09-23T14:11:47.678Z,1.10
2022-09-23T14:16:52.052Z,1.40
2022-09-23T14:21:57.287Z,1.00
2022-09-23T14:27:05.008Z,1.30
2022-09-23T14:32:15.415Z,1.40
2022-09-23T14:37:44.013Z,1.33
2022-09-23T14:42:49.640Z,1.48
2022-09-23T14:47:58.284Z,1.65
2022-09-23T14:53:02.937Z,1.42
2022-09-23T14:58:07.015Z,1.17
2022-09-23T15:03:16.213Z,1.23
2022-09-23T15:08:23.925Z,1.50
2022-09-23T15:13:29.437Z,1.67
2022-09-23T15:18:34.549Z,1.17
2022-09-23T15:23:47.166Z,0.90
2022-09-23T15:28:51.959Z,1.20
2022-09-23T15:33:56.000Z,0.90
2022-09-23T15:39:05.348Z,1.00
2022-09-23T15:44:14.166Z,1.13
2022-09-23T15:49:24.332Z,1.00
2022-09-23T15:54:28.971Z,0.85
2022-09-23T15:59:31.716Z,1.25
2022-09-23T16:04:36.082Z,2.10
2022-09-23T16:09:40.055Z,2.03
2022-09-23T16:14:42.767Z,3.90
2022-09-23T16:19:45.528Z,3.00
2022-09-23T16:24:49.787Z,3.55
2022-09-23T16:29:52.516Z,4.28
2022-09-23T16:34:57.998Z,2.92
2022-09-23T16:40:03.730Z,3.45
2022-09-23T16:45:07.313Z,3.13
2022-09-23T16:50:10.295Z,3.10
2022-09-23T16:55:15.725Z,3.88
2022-09-23T17:00:36.752Z,4.30
2022-09-23T17:05:39.357Z,6.05
2022-09-23T17:10:44.761Z,4.43
2022-09-23T17:15:47.288Z,6.32
2022-09-23T17:21:00.925Z,6.55
2022-09-23T17:26:10.076Z,4.75
2022-09-23T17:31:12.625Z,3.75
2022-09-23T17:36:16.787Z,4.05
2022-09-23T17:41:21.101Z,4.10
2022-09-23T17:46:23.995Z,5.30
2022-09-23T17:51:27.024Z,4.45
2022-09-23T17:56:31.005Z,3.63
2022-09-23T18:01:35.040Z,5.05
2022-09-23T18:06:38.678Z,4.72
2022-09-23T18:11:44.672Z,8.03
2022-09-23T18:16:48.620Z,4.55
2022-09-23T18:21:52.665Z,10.95
2022-09-23T18:26:59.634Z,12.90
2022-09-23T18:32:02.942Z,10.32
2022-09-23T18:37:15.060Z,7.97
2022-09-23T18:42:20.376Z,7.25
2022-09-23T18:52:39.288Z,6.85
2022-09-23T18:57:43.124Z,7.00
2022-09-23T19:02:45.899Z,7.40
2022-09-23T19:07:48.379Z,6.25
2022-09-23T19:12:52.162Z,7.38
2022-09-23T19:17:54.844Z,6.70
2022-09-23T19:22:57.321Z,6.15
2022-09-23T19:28:02.480Z,8.27
2022-09-23T19:33:06.264Z,7.03
2022-09-23T19:38:09.710Z,5.80
2022-09-23T19:43:14.336Z,5.43
2022-09-23T19:48:16.788Z,7.05
2022-09-23T19:53:19.458Z,7.30
2022-09-23T19:58:24.943Z,7.70
2022-09-23T20:03:27.792Z,6.43
2022-09-23T20:08:30.496Z,7.60
2022-09-23T20:13:34.299Z,7.35
2022-09-23T20:18:37.413Z,6.83
2022-09-23T20:23:40.223Z,6.90
2022-09-23T20:28:44.423Z,7.82
2022-09-23T20:33:50.906Z,8.38
2022-09-23T20:38:57.106Z,8.30
2022-09-23T20:44:02.591Z,7.75
2022-09-23T20:49:07.928Z,7.82
2022-09-23T20:54:12.016Z,7.72
2022-09-23T20:59:17.596Z,8.00
2022-09-23T21:04:20.395Z,7.63
2022-09-23T21:09:23.097Z,8.30
2022-09-23T21:14:27.103Z,7.65
2022-09-23T21:19:29.578Z,7.88
2022-09-23T21:29:56.429Z,6.78
2022-09-23T21:34:58.907Z,6.35
2022-09-23T21:40:19.497Z,6.45
2022-09-23T21:45:23.593Z,6.40
2022-09-23T21:50:29.504Z,4.72
2022-09-23T21:55:32.104Z,6.53
2022-09-23T22:00:36.194Z,7.60
2022-09-23T22:05:44.056Z,7.40
2022-09-23T22:10:46.601Z,6.80
2022-09-23T22:15:50.406Z,7.00
2022-09-23T22:20:55.295Z,7.28
2022-09-23T22:26:02.944Z,7.55
2022-09-23T22:31:25.057Z,7.70
2022-09-23T22:36:27.587Z,6.78
2022-09-23T22:41:30.121Z,6.85
2022-09-23T22:46:35.275Z,7.30
2022-09-23T22:51:38.818Z,8.18
2022-09-23T22:56:41.335Z,7.35
2022-09-23T23:01:45.825Z,7.95
2022-09-23T23:11:50.849Z,7.13
2022-09-23T23:16:55.113Z,7.82
2022-09-23T23:21:57.683Z,5.28
2022-09-23T23:27:00.224Z,7.55
2022-09-23T23:32:05.175Z,7.15
2022-09-23T23:37:07.899Z,7.55
2022-09-23T23:42:10.752Z,7.88
2022-09-23T23:47:15.424Z,7.50
2022-09-23T23:52:18.066Z,7.20
2022-09-23T23:57:20.540Z,7.28
